createdAt,value
2018-05-06T00:00:15.448Z,26.45
2018-05-06T00:02:47.804Z,33.55
2018-05-06T00:05:22.101Z,28.40
2018-05-06T00:07:53.157Z,32.60
2018-05-06T00:10:24.624Z,27.15
2018-05-06T00:12:58.124Z,30.48
2018-05-06T00:15:36.585Z,32.80
2018-05-06T00:18:11.679Z,33.78
2018-05-06T00:20:45.711Z,24.92
2018-05-06T00:23:22.071Z,28.45
2018-05-06T00:25:51.367Z,33.53
2018-05-06T00:28:19.891Z,37.75
2018-05-06T00:30:59.472Z,39.90
2018-05-06T00:33:41.811Z,34.72
2018-05-06T00:36:13.778Z,31.55
2018-05-06T00:38:45.008Z,29.95
2018-05-06T00:41:14.032Z,43.85
2018-05-06T00:43:45.743Z,32.63
2018-05-06T00:46:15.524Z,35.83
2018-05-06T00:48:45.273Z,33.80
2018-05-06T00:51:16.283Z,32.50
2018-05-06T00:53:46.479Z,31.48
2018-05-06T00:56:17.038Z,39.15
2018-05-06T00:58:47.184Z,41.35
2018-05-06T01:01:18.003Z,29.77
2018-05-06T01:03:49.368Z,40.03
2018-05-06T01:06:19.624Z,39.58
2018-05-06T01:08:49.761Z,35.65
2018-05-06T01:11:20.493Z,33.15
2018-05-06T01:13:52.029Z,35.55
2018-05-06T01:16:22.728Z,35.88
2018-05-06T01:18:54.872Z,25.55
2018-05-06T01:21:24.024Z,30.60
2018-05-06T01:24:03.549Z,32.00
2018-05-06T01:26:44.921Z,35.47
2018-05-06T01:29:16.076Z,32.83
2018-05-06T01:31:44.449Z,30.00
2018-05-06T01:34:12.852Z,31.40
2018-05-06T01:36:41.317Z,33.20
2018-05-06T01:39:09.729Z,32.95
2018-05-06T01:41:38.120Z,36.05
2018-05-06T01:44:07.265Z,40.60
2018-05-06T01:46:35.844Z,34.60
2018-05-06T01:49:04.220Z,30.80
2018-05-06T01:51:32.604Z,32.00
2018-05-06T01:54:01.009Z,31.52
2018-05-06T01:56:29.388Z,34.00
2018-05-06T01:58:57.797Z,34.88
2018-05-06T02:01:26.952Z,30.88
2018-05-06T02:03:55.516Z,35.83
2018-05-06T02:06:23.894Z,35.20
2018-05-06T02:08:52.273Z,39.55
2018-05-06T02:11:20.675Z,36.97
2018-05-06T02:13:49.134Z,35.45
2018-05-06T02:16:17.549Z,28.58
2018-05-06T02:18:45.928Z,27.70
2018-05-06T02:21:14.349Z,33.35
2018-05-06T02:23:42.720Z,41.63
2018-05-06T02:26:11.104Z,36.17
2018-05-06T02:28:39.561Z,32.70
2018-05-06T02:31:08.700Z,35.55
2018-05-06T02:33:37.097Z,33.67
2018-05-06T02:36:05.485Z,33.22
2018-05-06T02:38:34.042Z,38.67
2018-05-06T02:41:02.418Z,30.67
2018-05-06T02:43:30.804Z,39.15
2018-05-06T02:45:59.213Z,29.12
2018-05-06T02:48:27.590Z,32.58
2018-05-06T02:50:56.001Z,39.67
2018-05-06T02:53:25.149Z,27.73
2018-05-06T02:55:53.525Z,34.25
2018-05-06T02:58:21.928Z,30.08
2018-05-06T03:00:50.305Z,24.58
2018-05-06T03:03:18.704Z,30.12
2018-05-06T03:05:47.857Z,27.37
2018-05-06T03:08:17.358Z,28.62
2018-05-06T03:10:45.749Z,32.97
2018-05-06T03:13:14.122Z,29.33
2018-05-06T03:15:42.522Z,40.03
2018-05-06T03:18:10.900Z,27.90
2018-05-06T03:20:39.300Z,36.75
2018-05-06T03:23:08.445Z,36.53
2018-05-06T03:25:37.027Z,32.30
2018-05-06T03:28:05.407Z,33.35
2018-05-06T03:30:33.788Z,35.75
2018-05-06T03:33:02.191Z,45.12
2018-05-06T03:35:30.574Z,28.73
2018-05-06T03:37:58.976Z,34.10
2018-05-06T03:40:28.118Z,34.03
2018-05-06T03:42:56.689Z,42.00
2018-05-06T03:45:25.064Z,26.95
2018-05-06T03:47:53.441Z,25.15
2018-05-06T03:50:21.848Z,28.00
2018-05-06T03:52:50.227Z,28.30
2018-05-06T03:55:18.615Z,27.23
2018-05-06T03:58:04.773Z,30.73
2018-05-06T04:00:49.932Z,24.10
2018-05-06T04:03:18.304Z,26.80
2018-05-06T04:05:47.939Z,31.77
2018-05-06T04:08:16.316Z,33.47
2018-05-06T04:10:44.688Z,26.35
2018-05-06T04:13:13.092Z,33.45
2018-05-06T04:15:41.468Z,23.50
2018-05-06T04:18:09.874Z,26.25
2018-05-06T04:20:38.251Z,21.30
2018-05-06T04:23:06.994Z,21.50
2018-05-06T04:25:35.373Z,27.10
2018-05-06T04:28:03.744Z,22.50
2018-05-06T04:30:32.153Z,22.37
2018-05-06T04:33:00.538Z,21.50
2018-05-06T04:35:28.940Z,26.90
2018-05-06T04:37:57.309Z,24.75
2018-05-06T04:40:25.744Z,21.37
2018-05-06T04:42:54.127Z,26.33
2018-05-06T04:45:22.506Z,24.00
2018-05-06T04:47:50.969Z,26.70
2018-05-06T04:50:19.305Z,19.95
2018-05-06T04:52:47.750Z,22.23
2018-05-06T04:55:16.125Z,25.12
2018-05-06T04:57:44.686Z,23.95
2018-05-06T05:00:13.060Z,23.33
2018-05-06T05:02:41.432Z,28.87
2018-05-06T05:05:09.844Z,24.05
2018-05-06T05:07:38.213Z,16.75
2018-05-06T05:10:07.012Z,18.12
2018-05-06T05:12:35.384Z,19.12
2018-05-06T05:15:03.802Z,15.07
2018-05-06T05:17:32.184Z,20.12
2018-05-06T05:20:00.564Z,15.07
2018-05-06T05:22:30.473Z,12.85
2018-05-06T05:24:58.848Z,15.82
2018-05-06T05:27:27.245Z,19.90
2018-05-06T05:29:56.389Z,21.15
2018-05-06T05:32:24.964Z,22.52
2018-05-06T05:34:53.339Z,20.55
2018-05-06T05:37:21.713Z,14.07
2018-05-06T05:39:50.159Z,14.38
2018-05-06T05:42:19.297Z,12.63
2018-05-06T05:44:47.695Z,10.30
2018-05-06T05:47:16.079Z,20.30
2018-05-06T05:49:44.636Z,17.52
2018-05-06T05:52:13.191Z,15.93
2018-05-06T05:54:41.696Z,15.07
2018-05-06T05:57:10.097Z,16.83
2018-05-06T05:59:38.521Z,12.10
2018-05-06T06:02:07.690Z,16.30
2018-05-06T06:04:36.059Z,16.48
2018-05-06T06:07:04.480Z,14.18
2018-05-06T06:09:33.632Z,13.05
2018-05-06T06:12:02.015Z,18.70
2018-05-06T06:14:30.429Z,14.77
2018-05-06T06:16:59.576Z,14.13
2018-05-06T06:19:27.981Z,12.82
2018-05-06T06:21:56.357Z,14.80
2018-05-06T06:24:24.788Z,18.83
2018-05-06T06:26:53.164Z,14.45
2018-05-06T06:29:21.542Z,12.90
2018-05-06T06:31:49.944Z,14.87
2018-05-06T06:34:18.327Z,21.80
2018-05-06T06:36:46.729Z,14.43
2018-05-06T06:39:15.109Z,16.48
2018-05-06T06:41:43.857Z,14.02
2018-05-06T06:44:12.232Z,13.00
2018-05-06T06:46:40.609Z,15.73
2018-05-06T06:49:09.009Z,10.77
2018-05-06T06:51:37.386Z,12.68
2018-05-06T06:54:05.833Z,19.50
2018-05-06T06:56:34.217Z,13.20
2018-05-06T06:59:02.812Z,11.63
2018-05-06T07:01:31.192Z,19.92
2018-05-06T07:03:59.588Z,13.48
2018-05-06T07:06:28.009Z,11.05
2018-05-06T07:08:57.220Z,10.38
2018-05-06T07:11:25.644Z,14.52
2018-05-06T07:13:54.033Z,13.43
2018-05-06T07:16:22.629Z,14.93
2018-05-06T07:18:51.008Z,14.25
2018-05-06T07:21:19.389Z,8.80
2018-05-06T07:23:47.796Z,10.85
2018-05-06T07:26:16.176Z,11.23
2018-05-06T07:28:44.593Z,15.00
2018-05-06T07:31:12.981Z,14.63
2018-05-06T07:33:41.395Z,20.47
2018-05-06T07:36:10.547Z,14.43
2018-05-06T07:38:38.935Z,15.27
2018-05-06T07:41:07.351Z,14.10
2018-05-06T07:43:36.497Z,5.70
2018-05-06T07:46:04.889Z,9.97
2018-05-06T07:48:33.274Z,20.33
2018-05-06T07:51:02.039Z,9.43
2018-05-06T07:53:30.420Z,10.87
2018-05-06T07:55:58.792Z,8.03
2018-05-06T07:58:27.267Z,12.80
2018-05-06T08:00:55.667Z,13.93
2018-05-06T08:03:24.147Z,17.47
2018-05-06T08:05:53.330Z,12.50
2018-05-06T08:08:22.026Z,14.73
2018-05-06T08:10:50.484Z,11.10
2018-05-06T08:13:18.817Z,13.57
2018-05-06T08:15:47.990Z,15.33
2018-05-06T08:18:16.369Z,9.13
2018-05-06T08:20:44.777Z,13.80
2018-05-06T08:23:13.153Z,9.00
2018-05-06T08:25:42.611Z,8.63
2018-05-06T08:28:10.994Z,15.20
2018-05-06T08:30:39.382Z,7.43
2018-05-06T08:33:07.793Z,9.13
2018-05-06T08:35:36.937Z,11.80
2018-05-06T08:38:05.338Z,7.83
2018-05-06T08:40:33.730Z,10.80
2018-05-06T08:43:02.314Z,11.43
2018-05-06T08:45:30.778Z,14.83
2018-05-06T08:47:59.156Z,13.83
2018-05-06T08:50:27.565Z,13.83
2018-05-06T08:52:56.788Z,7.47
2018-05-06T08:55:25.224Z,14.43
2018-05-06T08:57:53.602Z,7.93
2018-05-06T09:00:22.071Z,7.20
2018-05-06T09:02:50.465Z,14.53
2018-05-06T09:05:18.833Z,7.60
2018-05-06T09:07:47.310Z,9.20
2018-05-06T09:10:15.688Z,8.67
2018-05-06T09:12:44.114Z,7.67
2018-05-06T09:15:13.265Z,6.93
2018-05-06T09:17:41.933Z,19.20
2018-05-06T09:20:10.297Z,8.40
2018-05-06T09:22:38.664Z,4.80
2018-05-06T09:25:07.825Z,19.00
2018-05-06T09:27:36.193Z,6.27
2018-05-06T09:30:04.596Z,6.87
2018-05-06T09:32:34.011Z,8.77
2018-05-06T09:35:03.216Z,7.40
2018-05-06T09:37:32.357Z,8.80
2018-05-06T09:40:00.730Z,9.13
2018-05-06T09:42:29.136Z,12.33
2018-05-06T09:44:57.515Z,9.77
2018-05-06T09:47:25.909Z,7.07
2018-05-06T09:49:55.072Z,14.30
2018-05-06T09:52:29.091Z,7.17
2018-05-06T09:55:13.251Z,13.63
2018-05-06T09:57:52.894Z,8.13
2018-05-06T10:00:21.764Z,10.73
2018-05-06T10:02:51.961Z,5.50
2018-05-06T10:05:22.479Z,7.20
2018-05-06T10:07:53.043Z,7.67
2018-05-06T10:10:23.561Z,10.80
2018-05-06T10:12:55.565Z,12.17
2018-05-06T10:15:25.948Z,7.43
2018-05-06T10:17:59.685Z,6.70
2018-05-06T10:20:31.933Z,12.00
2018-05-06T10:23:02.906Z,10.73
2018-05-06T10:25:34.466Z,5.97
2018-05-06T10:28:03.634Z,7.03
2018-05-06T10:30:34.943Z,6.67
2018-05-06T10:33:04.882Z,6.07
2018-05-06T10:35:35.088Z,3.90
2018-05-06T10:38:13.513Z,7.63
2018-05-06T10:40:42.360Z,5.00
2018-05-06T10:43:11.221Z,9.23
2018-05-06T10:45:45.122Z,6.20
2018-05-06T10:48:22.390Z,8.93
2018-05-06T10:50:50.968Z,13.30
2018-05-06T10:53:19.357Z,5.53
2018-05-06T10:55:47.760Z,5.63
2018-05-06T10:58:16.966Z,12.97
2018-05-06T11:00:46.148Z,8.23
2018-05-06T11:03:15.356Z,3.83
2018-05-06T11:05:44.518Z,3.97
2018-05-06T11:08:12.893Z,4.50
2018-05-06T11:10:41.463Z,2.60
2018-05-06T11:13:09.849Z,3.10
2018-05-06T11:15:38.275Z,4.30
2018-05-06T11:18:07.436Z,4.40
2018-05-06T11:20:36.479Z,5.90
2018-05-06T11:23:04.867Z,9.43
2018-05-06T11:25:33.240Z,4.23
2018-05-06T11:28:01.649Z,4.20
2018-05-06T11:30:30.028Z,3.50
2018-05-06T11:33:08.320Z,9.50
2018-05-06T11:35:41.036Z,8.93
2018-05-06T11:38:15.495Z,7.10
2018-05-06T11:40:47.776Z,7.20
2018-05-06T11:43:18.216Z,3.20
2018-05-06T11:45:46.920Z,6.67
2018-05-06T11:48:16.596Z,6.20
2018-05-06T11:50:45.012Z,3.03
2018-05-06T11:53:13.429Z,7.03
2018-05-06T11:55:42.225Z,5.87
2018-05-06T11:58:11.364Z,7.17
2018-05-06T12:00:39.794Z,5.10
2018-05-06T12:03:08.179Z,3.50
2018-05-06T12:05:37.600Z,8.03
2018-05-06T12:08:06.034Z,5.20
2018-05-06T12:10:34.499Z,7.60
2018-05-06T12:13:04.362Z,4.30
2018-05-06T12:15:33.522Z,6.73
2018-05-06T12:18:01.929Z,8.83
2018-05-06T12:20:31.591Z,10.70
2018-05-06T12:22:59.974Z,10.13
2018-05-06T12:25:29.402Z,4.97
2018-05-06T12:27:57.901Z,4.53
2018-05-06T12:30:27.133Z,9.60
2018-05-06T12:32:55.584Z,5.90
2018-05-06T12:35:24.260Z,10.47
2018-05-06T12:37:52.652Z,12.50
2018-05-06T12:40:21.828Z,7.00
2018-05-06T12:42:50.848Z,10.13
2018-05-06T12:45:20.211Z,10.67
2018-05-06T12:47:49.879Z,4.20
2018-05-06T12:50:19.038Z,6.33
2018-05-06T12:52:49.081Z,5.70
2018-05-06T12:55:18.183Z,5.23
2018-05-06T12:57:46.690Z,6.90
2018-05-06T13:00:16.011Z,3.57
2018-05-06T13:02:44.399Z,6.70
2018-05-06T13:05:12.797Z,12.23
2018-05-06T13:07:41.928Z,5.40
2018-05-06T13:10:10.475Z,6.53
2018-05-06T13:12:38.906Z,2.73
2018-05-06T13:15:07.305Z,7.60
2018-05-06T13:17:35.771Z,5.77
2018-05-06T13:20:04.968Z,9.00
2018-05-06T13:22:33.373Z,2.83
2018-05-06T13:25:01.750Z,3.23
2018-05-06T13:27:30.997Z,2.90
2018-05-06T13:30:00.073Z,2.13
2018-05-06T13:32:29.231Z,10.70
2018-05-06T13:34:57.641Z,6.87
2018-05-06T13:37:26.781Z,5.57
2018-05-06T13:39:55.184Z,7.00
2018-05-06T13:42:23.557Z,12.73
2018-05-06T13:44:51.957Z,1.80
2018-05-06T13:47:20.360Z,4.33
2018-05-06T13:49:48.824Z,3.00
2018-05-06T13:52:18.209Z,7.83
2018-05-06T13:54:48.091Z,7.30
2018-05-06T13:57:18.975Z,2.03
2018-05-06T13:59:47.377Z,6.70
2018-05-06T14:02:15.830Z,2.27
2018-05-06T14:04:44.601Z,6.43
2018-05-06T14:07:13.275Z,4.03
2018-05-06T14:09:43.589Z,2.40
2018-05-06T14:12:12.388Z,6.33
2018-05-06T14:14:41.113Z,10.17
2018-05-06T14:17:10.249Z,7.43
2018-05-06T14:19:39.988Z,5.27
2018-05-06T14:22:08.372Z,4.90
2018-05-06T14:24:38.272Z,8.83
2018-05-06T14:27:06.758Z,5.40
2018-05-06T14:29:35.861Z,3.83
2018-05-06T14:32:04.269Z,6.67
2018-05-06T14:34:33.538Z,8.73
2018-05-06T14:37:01.955Z,6.43
2018-05-06T14:39:31.116Z,4.60
2018-05-06T14:41:59.903Z,2.00
2018-05-06T14:44:29.176Z,8.80
2018-05-06T14:47:15.639Z,5.73
2018-05-06T14:49:44.982Z,3.53
2018-05-06T14:52:13.385Z,3.73
2018-05-06T14:54:41.949Z,9.17
2018-05-06T14:57:10.391Z,3.00
2018-05-06T14:59:38.788Z,4.30
2018-05-06T15:02:07.530Z,7.50
2018-05-06T15:04:36.352Z,4.77
2018-05-06T15:07:04.741Z,5.33
2018-05-06T15:09:33.109Z,7.00
2018-05-06T15:12:01.577Z,8.97
2018-05-06T15:14:38.248Z,4.30
2018-05-06T15:17:06.951Z,15.23
2018-05-06T15:19:35.527Z,2.60
2018-05-06T15:22:03.936Z,3.77
2018-05-06T15:24:32.317Z,5.30
2018-05-06T15:27:00.724Z,11.40
2018-05-06T15:29:32.049Z,3.50
2018-05-06T15:32:00.727Z,7.10
2018-05-06T15:34:29.100Z,5.03
2018-05-06T15:36:57.569Z,5.10
2018-05-06T15:39:26.326Z,4.03
2018-05-06T15:41:55.659Z,7.43
2018-05-06T15:44:24.151Z,4.80
2018-05-06T15:46:52.565Z,12.90
2018-05-06T15:49:21.106Z,24.43
2018-05-06T15:51:49.493Z,4.83
2018-05-06T15:54:17.860Z,5.00
2018-05-06T15:56:46.244Z,5.17
2018-05-06T15:59:14.615Z,9.23
2018-05-06T16:01:43.534Z,9.07
2018-05-06T16:04:16.836Z,14.40
2018-05-06T16:06:46.017Z,7.33
2018-05-06T16:09:14.397Z,14.70
2018-05-06T16:11:42.836Z,11.93
2018-05-06T16:14:11.204Z,5.70
2018-05-06T16:16:40.911Z,4.40
2018-05-06T16:19:09.321Z,2.50
2018-05-06T16:21:38.972Z,4.93
2018-05-06T16:24:07.505Z,3.87
2018-05-06T16:26:35.947Z,4.60
2018-05-06T16:29:05.387Z,4.50
2018-05-06T16:31:34.573Z,5.87
2018-05-06T16:34:03.136Z,2.60
2018-05-06T16:36:32.301Z,2.30
2018-05-06T16:39:00.676Z,3.60
2018-05-06T16:41:29.064Z,6.87
2018-05-06T16:43:57.442Z,6.43
2018-05-06T16:46:26.099Z,7.13
2018-05-06T16:48:54.498Z,19.73
2018-05-06T16:51:22.885Z,101.77
2018-05-06T16:53:52.057Z,19.50
2018-05-06T16:56:20.540Z,8.23
2018-05-06T16:58:48.950Z,3.63
2018-05-06T17:01:17.327Z,11.00
2018-05-06T17:03:46.713Z,8.83
2018-05-06T17:06:15.653Z,7.17
2018-05-06T17:08:44.024Z,14.07
2018-05-06T17:11:13.197Z,7.10
2018-05-06T17:13:41.566Z,9.63
2018-05-06T17:16:09.969Z,3.83
2018-05-06T17:18:39.149Z,8.13
2018-05-06T17:21:07.834Z,6.73
2018-05-06T17:23:37.034Z,5.77
2018-05-06T17:26:05.411Z,2.67
2018-05-06T17:28:33.809Z,3.93
2018-05-06T17:31:02.948Z,4.40
2018-05-06T17:33:31.359Z,58.17
2018-05-06T17:35:59.802Z,12.20
2018-05-06T17:38:28.381Z,9.10
2018-05-06T17:40:56.757Z,11.53
2018-05-06T17:43:25.125Z,6.77
2018-05-06T17:45:53.638Z,6.50
2018-05-06T17:48:23.102Z,7.33
2018-05-06T17:50:51.492Z,9.37
2018-05-06T17:53:19.871Z,3.80
2018-05-06T17:55:48.509Z,11.00
2018-05-06T17:58:16.935Z,7.07
2018-05-06T18:00:45.314Z,9.10
2018-05-06T18:03:13.713Z,12.60
2018-05-06T18:05:42.569Z,2.77
2018-05-06T18:08:10.969Z,6.40
2018-05-06T18:10:39.364Z,4.40
2018-05-06T18:13:21.722Z,3.87
2018-05-06T18:16:05.713Z,10.20
2018-05-06T18:18:53.876Z,17.00
2018-05-06T18:21:32.369Z,6.80
2018-05-06T18:24:01.072Z,6.73
2018-05-06T18:26:29.445Z,3.43
2018-05-06T18:28:58.358Z,21.23
2018-05-06T18:31:27.832Z,9.67
2018-05-06T18:33:58.954Z,12.80
2018-05-06T18:36:27.776Z,10.63
2018-05-06T18:38:56.867Z,8.80
2018-05-06T18:41:26.364Z,4.73
2018-05-06T18:43:55.753Z,13.53
2018-05-06T18:46:24.678Z,14.10
2018-05-06T18:48:53.841Z,8.57
2018-05-06T18:51:23.706Z,8.70
2018-05-06T18:53:53.285Z,13.30
2018-05-06T18:56:22.693Z,9.97
2018-05-06T18:58:54.142Z,11.03
2018-05-06T19:01:27.798Z,11.03
2018-05-06T19:03:57.817Z,13.73
2018-05-06T19:06:28.566Z,12.40
2018-05-06T19:08:59.748Z,30.57
2018-05-06T19:11:32.806Z,10.93
2018-05-06T19:14:04.233Z,16.50
2018-05-06T19:16:34.937Z,11.90
2018-05-06T19:19:05.131Z,15.40
2018-05-06T19:21:36.099Z,20.27
2018-05-06T19:24:05.767Z,19.40
2018-05-06T19:26:36.658Z,13.60
2018-05-06T19:29:05.957Z,10.30
2018-05-06T19:31:35.637Z,11.43
2018-05-06T19:34:05.392Z,8.37
2018-05-06T19:36:34.915Z,9.97
2018-05-06T19:39:07.366Z,22.47
2018-05-06T19:41:38.280Z,12.67
2018-05-06T19:44:08.033Z,9.20
2018-05-06T19:46:37.631Z,5.87
2018-05-06T19:49:07.009Z,8.00
2018-05-06T19:51:36.987Z,7.43
2018-05-06T19:54:07.903Z,6.30
2018-05-06T19:56:37.570Z,6.40
2018-05-06T19:59:07.936Z,7.30
2018-05-06T20:01:37.748Z,6.00
2018-05-06T20:04:08.215Z,11.98
2018-05-06T20:06:37.983Z,10.10
2018-05-06T20:09:07.372Z,4.72
2018-05-06T20:11:37.099Z,5.50
2018-05-06T20:14:07.403Z,4.43
2018-05-06T20:16:36.711Z,12.20
2018-05-06T20:19:07.838Z,3.13
2018-05-06T20:21:37.407Z,6.68
2018-05-06T20:24:07.153Z,6.90
2018-05-06T20:26:37.242Z,7.53
2018-05-06T20:29:08.851Z,7.45
2018-05-06T20:31:42.311Z,4.90
2018-05-06T20:34:13.737Z,5.85
2018-05-06T20:36:49.023Z,12.88
2018-05-06T20:39:22.392Z,3.70
2018-05-06T20:41:52.298Z,4.72
2018-05-06T20:44:20.717Z,3.85
2018-05-06T20:46:49.508Z,5.97
2018-05-06T20:49:17.903Z,8.57
2018-05-06T20:51:49.375Z,4.20
2018-05-06T20:54:20.864Z,6.22
2018-05-06T20:56:51.095Z,14.23
2018-05-06T20:59:19.522Z,8.30
2018-05-06T21:01:49.573Z,4.55
2018-05-06T21:04:19.161Z,6.82
2018-05-06T21:06:50.141Z,5.97
2018-05-06T21:09:21.720Z,6.47
2018-05-06T21:11:52.377Z,11.52
2018-05-06T21:14:23.853Z,3.87
2018-05-06T21:16:54.077Z,15.30
2018-05-06T21:19:22.911Z,4.93
2018-05-06T21:21:51.596Z,4.82
2018-05-06T21:24:20.362Z,6.00
2018-05-06T21:26:49.052Z,13.10
2018-05-06T21:29:17.692Z,6.00
2018-05-06T21:31:47.193Z,5.47
2018-05-06T21:34:16.797Z,7.62
2018-05-06T21:36:45.593Z,3.72
2018-05-06T21:39:14.174Z,5.90
2018-05-06T21:41:43.187Z,5.78
2018-05-06T21:44:12.099Z,3.97
2018-05-06T21:46:40.779Z,4.15
2018-05-06T21:49:09.614Z,2.22
2018-05-06T21:51:39.536Z,6.32
2018-05-06T21:54:08.939Z,5.50
2018-05-06T21:56:38.789Z,10.82
2018-05-06T21:59:07.648Z,10.60
2018-05-06T22:01:36.526Z,6.43
2018-05-06T22:04:05.181Z,3.45
2018-05-06T22:06:33.992Z,6.35
2018-05-06T22:09:02.709Z,6.10
2018-05-06T22:11:32.170Z,2.35
2018-05-06T22:14:00.833Z,9.60
2018-05-06T22:16:29.560Z,6.00
2018-05-06T22:18:58.426Z,10.48
2018-05-06T22:21:27.158Z,4.40
2018-05-06T22:23:56.541Z,6.03
2018-05-06T22:26:25.177Z,6.40
2018-05-06T22:28:54.575Z,6.18
2018-05-06T22:31:23.623Z,6.70
2018-05-06T22:33:52.369Z,3.55
2018-05-06T22:36:20.989Z,7.00
2018-05-06T22:38:50.604Z,7.28
2018-05-06T22:41:19.252Z,10.40
2018-05-06T22:43:47.982Z,6.00
2018-05-06T22:46:17.323Z,3.90
2018-05-06T22:48:46.395Z,3.55
2018-05-06T22:51:15.832Z,4.95
2018-05-06T22:53:44.550Z,3.72
2018-05-06T22:56:13.352Z,5.15
2018-05-06T22:58:41.999Z,5.05
2018-05-06T23:01:10.502Z,3.85
2018-05-06T23:03:39.231Z,7.87
2018-05-06T23:06:07.879Z,6.55
2018-05-06T23:08:36.695Z,5.32
2018-05-06T23:11:09.519Z,9.68
2018-05-06T23:13:38.092Z,4.60
2018-05-06T23:16:06.749Z,4.10
2018-05-06T23:18:36.327Z,6.85
2018-05-06T23:21:05.000Z,4.10
2018-05-06T23:23:33.727Z,3.75
2018-05-06T23:26:03.137Z,5.78
2018-05-06T23:28:31.990Z,5.37
2018-05-06T23:31:00.682Z,6.80
2018-05-06T23:33:30.974Z,9.70
2018-05-06T23:35:59.793Z,4.15
2018-05-06T23:38:28.453Z,3.95
2018-05-06T23:40:57.243Z,4.32
2018-05-06T23:43:25.980Z,5.05
2018-05-06T23:45:55.709Z,9.15
2018-05-06T23:48:25.335Z,4.40
2018-05-06T23:51:03.235Z,11.63
2018-05-06T23:53:46.740Z,3.05
2018-05-06T23:56:29.614Z,2.37
2018-05-06T23:59:16.174Z,4.25
